Time;durP1;ratioP1;P1;durP2;ratioP2;P2;SDS_P1;SDS_P2;PMS_P1;PMS_P2;Temp;Humidity;BMP_temperature;BMP_pressure;BME280_temperature;BME280_humidity;BME280_pressure;Samples;Min_cycle;Max_cycle;Signal;HPM_P1;HPM_P2
2022/10/25 00:02:31;;;;;;;2.53;0.73;;;;;;;17.39;47.35;95558.84;5102841;28;20448;-66
2022/10/25 00:04:58;;;;;;;0.50;0.50;;;;;;;17.19;47.91;95565.16;5091576;28;20449;-67
2022/10/25 00:07:24;;;;;;;2.73;1.93;;;;;;;17.37;47.28;95562.88;5094931;28;20890;-68
2022/10/25 00:09:51;;;;;;;2.97;2.17;;;;;;;17.48;46.79;95562.47;5096734;28;20441;-65
2022/10/25 00:12:18;;;;;;;1.87;1.13;;;;;;;17.33;47.08;95553.88;5095576;28;20539;-66
2022/10/25 00:14:45;;;;;;;0.93;0.93;;;;;;;17.55;46.60;95562.97;5103198;28;20468;-64
2022/10/25 00:17:12;;;;;;;13.17;2.43;;;;;;;17.51;46.79;95561.13;5107640;28;20874;-59
2022/10/25 00:19:39;;;;;;;1.70;0.83;;;;;;;17.52;46.60;95557.41;5096939;28;20520;-67
2022/10/25 00:22:05;;;;;;;1.03;0.93;;;;;;;17.36;47.17;95559.41;5108188;28;20480;-67
2022/10/25 00:24:32;;;;;;;0.77;0.77;;;;;;;17.10;47.99;95532.41;5103267;28;20436;-68
2022/10/25 00:26:59;;;;;;;1.60;1.50;;;;;;;17.37;46.77;95562.88;5103323;28;20441;-65
2022/10/25 00:29:26;;;;;;;0.77;0.77;;;;;;;17.39;47.41;95568.66;5094541;28;20445;-71
2022/10/25 00:31:53;;;;;;;1.13;1.03;;;;;;;17.35;47.43;95570.28;5089290;28;20958;-70
2022/10/25 00:34:20;;;;;;;5.13;2.03;;;;;;;17.53;47.13;95569.59;5094674;28;20468;-63
2022/10/25 00:36:47;;;;;;;1.67;1.57;;;;;;;17.40;47.02;95570.22;5095273;28;20517;-63
2022/10/25 00:39:14;;;;;;;0.83;0.83;;;;;;;17.20;48.32;95564.09;5100855;28;20464;-71
2022/10/25 00:41:40;;;;;;;1.70;1.60;;;;;;;17.16;47.61;95560.41;5089313;28;20506;-69
2022/10/25 00:44:52;;;;;;;4.30;2.90;;;;;;;17.19;48.83;95565.16;5098351;28;20543;-65
2022/10/25 00:47:19;;;;;;;0.50;0.50;;;;;;;15.78;52.48;95567.19;5099606;28;20893;-63
2022/10/25 00:49:57;;;;;;;1.73;1.47;;;;;;;16.09;51.22;95560.69;5092474;28;20446;-71
2022/10/25 00:52:25;;;;;;;1.03;0.97;;;;;;;16.51;49.97;95552.25;5092201;28;21571;-68
2022/10/25 00:54:53;;;;;;;2.40;2.20;;;;;;;16.75;49.18;95553.91;5099682;28;20594;-68
2022/10/25 00:57:33;;;;;;;0.93;0.83;;;;;;;16.74;48.72;95546.25;5090922;28;20440;-65
2022/10/25 01:00:01;;;;;;;3.60;2.83;;;;;;;16.67;49.11;95561.66;5099136;28;20484;-61
2022/10/25 01:02:28;;;;;;;0.70;0.70;;;;;;;16.69;48.44;95549.72;5094172;28;20454;-62
2022/10/25 01:04:55;;;;;;;3.10;2.00;;;;;;;16.57;48.66;95546.63;5099860;28;20471;-70
2022/10/25 01:07:22;;;;;;;0.80;0.80;;;;;;;16.39;49.48;95538.53;5102112;28;20498;-65
2022/10/25 01:09:50;;;;;;;0.70;0.70;;;;;;;15.62;51.78;95547.97;5099887;28;20473;-64
2022/10/25 01:12:17;;;;;;;0.60;0.53;;;;;;;15.91;50.47;95538.31;5109179;28;20532;-66
2022/10/25 01:14:47;;;;;;;2.53;1.33;;;;;;;15.96;50.39;95540.16;5099350;28;20452;-65
2022/10/25 01:17:27;;;;;;;0.40;0.40;;;;;;;16.05;49.82;95544.59;5096195;28;20808;-71
2022/10/25 01:20:38;;;;;;;11.57;2.90;;;;;;;16.19;49.85;95544.75;5100095;28;21093;-66
2022/10/25 01:23:26;;;;;;;1.77;1.67;;;;;;;16.49;49.10;95538.50;5091998;28;20536;-69
2022/10/25 01:26:21;;;;;;;0.60;0.60;;;;;;;16.72;48.13;95538.59;5092229;28;20941;-65
2022/10/25 01:29:00;;;;;;;0.73;0.73;;;;;;;16.86;48.37;95538.75;5101619;28;21005;-64
2022/10/25 01:31:52;;;;;;;6.90;1.97;;;;;;;16.76;47.95;95534.31;5105451;28;20428;-69
2022/10/25 01:34:30;;;;;;;1.00;0.97;;;;;;;16.88;48.18;95547.16;5107185;28;21228;-69
2022/10/25 01:37:06;;;;;;;0.67;0.67;;;;;;;16.47;48.67;95536.16;5091237;28;20453;-73
2022/10/25 01:39:40;;;;;;;0.40;0.40;;;;;;;16.47;49.13;95541.44;5096808;28;20892;-65
2022/10/25 01:42:13;;;;;;;1.40;1.30;;;;;;;16.61;48.31;95531.78;5091114;28;20517;-62
2022/10/25 01:45:07;;;;;;;3.47;2.20;;;;;;;16.61;48.14;95531.00;5092734;28;20485;-65
2022/10/25 01:47:40;;;;;;;1.40;1.30;;;;;;;16.39;49.65;95526.09;5093868;28;20476;-66
2022/10/25 01:50:13;;;;;;;1.43;1.30;;;;;;;16.24;49.48;95531.50;5099545;28;20447;-64
2022/10/25 01:52:40;;;;;;;1.13;1.07;;;;;;;16.36;49.06;95542.53;5099299;28;20480;-68
2022/10/25 01:55:11;;;;;;;1.30;1.03;;;;;;;16.42;48.52;95527.44;5097301;28;20449;-66
2022/10/25 01:58:09;;;;;;;43.50;1.37;;;;;;;16.48;49.03;95521.84;5106732;28;20535;-69
2022/10/25 02:00:54;;;;;;;11.13;3.50;;;;;;;16.33;49.49;95529.84;5099786;28;20468;-68
2022/10/25 02:03:30;;;;;;;1.50;1.40;;;;;;;16.30;49.28;95525.13;5110970;28;20461;-62
2022/10/25 02:06:15;;;;;;;1.07;1.00;;;;;;;16.37;49.24;95519.53;5105743;28;20451;-66
2022/10/25 02:08:49;;;;;;;0.60;0.60;;;;;;;15.94;49.59;95515.84;5102215;28;20597;-71
2022/10/25 02:11:30;;;;;;;0.10;0.10;;;;;;;15.40;51.39;95525.59;5097255;28;20455;-69
2022/10/25 02:14:31;;;;;;;0.50;0.47;;;;;;;14.98;52.89;95518.81;5097761;28;20449;-71
2022/10/25 02:17:08;;;;;;;0.93;0.93;;;;;;;15.04;52.66;95523.03;5106384;28;20982;-65
2022/10/25 02:19:58;;;;;;;2.47;1.80;;;;;;;15.13;52.87;95526.72;5096129;28;20522;-65
2022/10/25 02:22:29;;;;;;;1.97;1.17;;;;;;;15.44;51.58;95526.66;5106618;28;20440;-68
2022/10/25 02:24:56;;;;;;;0.47;0.47;;;;;;;15.69;51.29;95518.63;5099406;28;20974;-62
2022/10/25 02:27:25;;;;;;;12.60;2.13;;;;;;;15.80;50.01;95510.34;5106410;28;20515;-66
2022/10/25 02:29:53;;;;;;;0.53;0.53;;;;;;;15.89;50.31;95521.16;5109961;28;20444;-67
2022/10/25 02:32:20;;;;;;;2.17;1.40;;;;;;;15.84;50.45;95516.69;5095387;28;20437;-70
2022/10/25 02:34:48;;;;;;;3.83;2.20;;;;;;;15.91;49.97;95511.13;5103482;28;20451;-70
2022/10/25 02:37:17;;;;;;;1.13;0.90;;;;;;;15.75;50.13;95520.16;5106331;28;20978;-69
2022/10/25 02:39:44;;;;;;;0.70;0.70;;;;;;;15.91;49.55;95521.69;5105706;28;20478;-67
2022/10/25 02:42:11;;;;;;;8.07;1.77;;;;;;;15.78;48.99;95509.06;5097362;28;20990;-70
2022/10/25 02:44:38;;;;;;;0.60;0.60;;;;;;;15.93;48.94;95520.31;5096988;28;20799;-68
2022/10/25 02:47:05;;;;;;;0.30;0.30;;;;;;;15.80;49.78;95522.78;5108065;28;21033;-66
2022/10/25 02:49:32;;;;;;;0.97;0.93;;;;;;;15.75;49.50;95523.59;5099690;28;20466;-63
2022/10/25 02:51:58;;;;;;;0.47;0.47;;;;;;;15.69;49.34;95521.25;5104311;28;20846;-64
2022/10/25 02:54:25;;;;;;;1.80;1.50;;;;;;;15.74;49.35;95521.22;5108725;27;20520;-64
2022/10/25 02:56:52;;;;;;;9.97;1.53;;;;;;;15.67;50.24;95526.03;5094241;28;20433;-69
2022/10/25 02:59:20;;;;;;;0.20;0.20;;;;;;;15.80;49.30;95520.16;5094418;28;21117;-65
2022/10/25 03:01:47;;;;;;;1.00;0.90;;;;;;;15.87;49.21;95510.88;5094887;28;20528;-66
2022/10/25 03:04:14;;;;;;;1.57;1.47;;;;;;;15.90;48.91;95517.44;5105769;28;20531;-66
2022/10/25 03:06:40;;;;;;;3.50;1.50;;;;;;;15.70;50.05;95509.63;5103076;28;20839;-67
2022/10/25 03:09:07;;;;;;;1.37;1.27;;;;;;;15.23;51.64;95513.50;5098330;28;20475;-66
2022/10/25 03:11:34;;;;;;;1.17;1.00;;;;;;;15.40;50.92;95525.59;5095050;28;20564;-70
2022/10/25 03:14:01;;;;;;;0.33;0.33;;;;;;;15.51;50.07;95516.59;5098552;28;20508;-69
2022/10/25 03:16:28;;;;;;;0.80;0.80;;;;;;;15.08;51.36;95510.88;5093386;28;20461;-65
2022/10/25 03:18:58;;;;;;;6.57;1.87;;;;;;;15.21;51.11;95502.41;5091752;28;20477;-69
2022/10/25 03:21:25;;;;;;;0.93;0.90;;;;;;;15.42;50.52;95520.84;5092579;28;20844;-64
2022/10/25 03:23:52;;;;;;;2.80;2.53;;;;;;;15.48;50.04;95520.56;5102283;28;20849;-67
2022/10/25 03:26:19;;;;;;;1.43;1.33;;;;;;;15.42;50.00;95515.56;5096763;28;20445;-67
2022/10/25 03:28:46;;;;;;;4.00;1.53;;;;;;;15.44;49.57;95526.66;5101811;28;20432;-68
2022/10/25 03:31:15;;;;;;;0.87;0.87;;;;;;;15.45;49.57;95525.59;5096454;28;20461;-67
2022/10/25 03:33:43;;;;;;;7.33;2.73;;;;;;;15.57;49.42;95520.78;5108677;28;20543;-65
2022/10/25 03:36:10;;;;;;;3.00;2.33;;;;;;;15.61;49.61;95521.81;5099120;28;20529;-64
2022/10/25 03:38:37;;;;;;;1.90;1.77;;;;;;;15.50;49.77;95515.78;5104113;28;20543;-69
2022/10/25 03:41:04;;;;;;;7.33;2.63;;;;;;;15.57;49.93;95520.78;5097839;28;21018;-67
2022/10/25 03:43:31;;;;;;;1.27;1.17;;;;;;;14.96;50.94;95523.56;5111546;28;20447;-65
2022/10/25 03:45:58;;;;;;;2.17;1.60;;;;;;;14.27;53.85;95527.06;5101236;28;20483;-70
2022/10/25 03:48:25;;;;;;;3.07;2.73;;;;;;;14.27;54.02;95519.16;5090714;28;20483;-65
2022/10/25 03:50:53;;;;;;;2.90;1.87;;;;;;;14.20;54.73;95522.00;5095330;28;21062;-66
2022/10/25 03:53:20;;;;;;;2.33;1.67;;;;;;;13.86;55.24;95511.16;5096990;28;20472;-66
2022/10/25 03:55:47;;;;;;;1.80;1.70;;;;;;;14.20;54.28;95522.78;5097370;28;20874;-63
2022/10/25 03:58:14;;;;;;;0.87;0.87;;;;;;;14.57;53.16;95512.03;5101867;28;20547;-71
2022/10/25 04:00:40;;;;;;;0.97;0.80;;;;;;;14.51;54.05;95513.06;5093110;28;20924;-65
2022/10/25 04:03:08;;;;;;;1.60;1.10;;;;;;;13.85;56.22;95514.81;5097620;28;20808;-66
2022/10/25 04:05:35;;;;;;;3.63;2.40;;;;;;;14.32;55.05;95509.41;5102200;28;20951;-68
2022/10/25 04:08:02;;;;;;;0.50;0.50;;;;;;;14.82;53.32;95509.34;5102101;28;20444;-64
2022/10/25 04:10:28;;;;;;;2.57;2.37;;;;;;;14.74;53.06;95504.63;5100308;28;20434;-67
2022/10/25 04:12:55;;;;;;;2.13;1.93;;;;;;;14.67;53.44;95517.28;5090644;28;20556;-70
2022/10/25 04:15:23;;;;;;;1.80;1.70;;;;;;;14.95;52.19;95508.81;5107923;28;20476;-68
2022/10/25 04:17:51;;;;;;;2.30;1.73;;;;;;;14.67;52.44;95506.72;5099271;27;20444;-67
2022/10/25 04:20:18;;;;;;;7.27;1.90;;;;;;;14.83;51.89;95495.13;5109540;27;20479;-65
2022/10/25 04:22:51;;;;;;;5.47;2.43;;;;;;;15.05;51.81;95503.50;5098057;27;20436;-69
2022/10/25 04:25:20;;;;;;;4.50;2.17;;;;;;;14.88;51.43;95508.28;5111680;27;20472;-70
2022/10/25 04:27:46;;;;;;;1.50;1.40;;;;;;;14.65;52.21;95518.63;5103330;28;20468;-68
2022/10/25 04:30:14;;;;;;;11.67;4.70;;;;;;;14.70;52.10;95522.03;5100853;28;20445;-68
2022/10/25 04:32:41;;;;;;;1.13;1.13;;;;;;;14.74;51.63;95523.09;5089996;28;20516;-62
2022/10/25 04:35:08;;;;;;;4.93;2.70;;;;;;;15.07;50.59;95524.34;5090288;28;21003;-69
2022/10/25 04:37:35;;;;;;;2.00;1.87;;;;;;;15.03;50.76;95526.75;5097997;28;20444;-65
2022/10/25 04:40:02;;;;;;;4.50;2.97;;;;;;;15.31;50.20;95537.75;5089821;28;20477;-63
2022/10/25 04:42:32;;;;;;;15.23;7.67;;;;;;;15.37;50.63;95528.75;5108926;28;20469;-70
2022/10/25 04:44:59;;;;;;;12.97;11.57;;;;;;;15.29;50.91;95516.13;5114240;28;20449;-60
2022/10/25 04:47:30;;;;;;;3.03;2.70;;;;;;;15.15;50.78;95519.31;5099118;28;20983;-67
2022/10/25 04:49:57;;;;;;;2.37;2.23;;;;;;;14.97;51.19;95519.88;5089431;28;20788;-63
2022/10/25 04:52:24;;;;;;;2.90;2.67;;;;;;;14.85;51.60;95529.91;5109709;28;21161;-68
2022/10/25 04:54:50;;;;;;;3.40;2.93;;;;;;;14.65;51.94;95535.22;5097743;28;20512;-66
2022/10/25 04:57:17;;;;;;;4.50;2.70;;;;;;;15.00;51.11;95537.81;5089632;28;20543;-65
2022/10/25 04:59:44;;;;;;;3.77;3.47;;;;;;;15.16;50.55;95528.81;5087756;28;20978;-69
2022/10/25 05:02:11;;;;;;;8.17;7.07;;;;;;;14.80;52.28;95532.56;5104478;28;20851;-71
2022/10/25 05:04:38;;;;;;;3.90;3.23;;;;;;;14.67;51.94;95527.81;5096516;28;20523;-67
2022/10/25 05:07:05;;;;;;;5.03;3.27;;;;;;;14.20;53.45;95535.16;5109621;28;20468;-63
2022/10/25 05:09:31;;;;;;;1.13;1.13;;;;;;;14.78;52.49;95526.00;5103729;28;20472;-64
2022/10/25 05:11:58;;;;;;;7.37;4.40;;;;;;;14.76;52.22;95531.50;5100861;28;20454;-62
2022/10/25 05:14:25;;;;;;;1.40;1.30;;;;;;;14.45;52.85;95529.19;5109199;28;20451;-65
2022/10/25 05:16:52;;;;;;;1.47;1.37;;;;;;;14.90;51.86;95527.28;5098907;28;20622;-64
2022/10/25 05:19:19;;;;;;;2.80;2.60;;;;;;;15.06;52.22;95531.47;5102895;28;20441;-65
2022/10/25 05:21:46;;;;;;;2.23;1.53;;;;;;;15.18;52.13;95524.06;5088685;28;20508;-65
2022/10/25 05:24:13;;;;;;;7.90;2.63;;;;;;;15.13;51.73;95508.22;5103488;28;20763;-65
2022/10/25 05:26:40;;;;;;;1.97;1.77;;;;;;;15.05;52.38;95521.97;5094365;28;20811;-65
2022/10/25 05:29:10;;;;;;;2.23;1.83;;;;;;;14.42;54.42;95534.94;5101038;28;20463;-65
2022/10/25 05:31:40;;;;;;;2.47;1.80;;;;;;;14.51;54.86;95543.91;5089785;28;20451;-63
2022/10/25 05:34:09;;;;;;;3.73;2.93;;;;;;;14.50;55.75;95545.78;5109596;28;20893;-63
2022/10/25 05:36:35;;;;;;;3.70;3.33;;;;;;;14.51;55.04;95552.63;5109338;28;20460;-65
2022/10/25 05:39:02;;;;;;;7.43;3.20;;;;;;;14.60;55.80;95561.59;5087260;28;20457;-64
2022/10/25 05:41:29;;;;;;;0.73;0.73;;;;;;;15.11;53.87;95563.13;5086474;28;20475;-63
2022/10/25 05:44:01;;;;;;;3.97;3.50;;;;;;;15.05;53.79;95577.38;5086553;28;20814;-62
2022/10/25 05:46:28;;;;;;;3.33;3.03;;;;;;;14.85;54.52;95577.41;5093704;28;20474;-63
2022/10/25 05:48:58;;;;;;;2.10;1.97;;;;;;;15.26;53.28;95572.88;5106866;28;20535;-64
2022/10/25 05:51:29;;;;;;;2.33;2.20;;;;;;;14.78;54.34;95584.03;5088678;28;20453;-65
2022/10/25 05:54:12;;;;;;;3.87;3.53;;;;;;;14.94;52.67;95583.75;5088090;28;20458;-65
2022/10/25 05:56:39;;;;;;;2.50;2.07;;;;;;;14.86;52.89;95588.75;5100278;28;20485;-62
2022/10/25 05:59:11;;;;;;;3.63;3.33;;;;;;;15.08;51.89;95591.91;5108859;28;20464;-63
2022/10/25 06:01:47;;;;;;;2.07;1.97;;;;;;;15.17;51.60;95591.13;5097609;28;20509;-65
2022/10/25 06:04:15;;;;;;;2.53;2.33;;;;;;;15.35;51.24;95597.69;5102357;28;21075;-66
2022/10/25 06:06:44;;;;;;;3.00;2.77;;;;;;;15.06;52.04;95594.81;5098640;28;21053;-64
2022/10/25 06:09:12;;;;;;;4.17;2.67;;;;;;;15.68;50.43;95598.94;5094128;28;20475;-64
2022/10/25 06:11:39;;;;;;;6.10;2.73;;;;;;;15.54;51.16;95588.16;5109074;28;20432;-61
2022/10/25 06:14:08;;;;;;;2.73;2.53;;;;;;;15.66;51.09;95588.63;5092980;28;20477;-64
2022/10/25 06:16:36;;;;;;;3.27;2.90;;;;;;;16.21;49.87;95593.69;5088005;28;20449;-62
2022/10/25 06:19:03;;;;;;;5.00;2.97;;;;;;;16.46;49.50;95592.72;5088133;28;20918;-65
2022/10/25 06:21:30;;;;;;;1.37;1.27;;;;;;;16.40;49.32;95593.03;5101490;28;20508;-65
2022/10/25 06:23:58;;;;;;;2.27;2.17;;;;;;;16.04;51.06;95590.59;5088165;28;20455;-64
2022/10/25 06:26:28;;;;;;;0.80;0.80;;;;;;;16.00;51.09;95578.19;5106966;28;20475;-61
2022/10/25 06:28:57;;;;;;;8.30;3.80;;;;;;;15.50;53.03;95602.16;5097619;28;21051;-67
2022/10/25 06:31:24;;;;;;;2.13;1.90;;;;;;;16.38;50.54;95590.66;5091328;28;20436;-62
2022/10/25 06:33:51;;;;;;;12.60;2.03;;;;;;;16.86;49.36;95591.69;5101372;28;20445;-64
2022/10/25 06:36:23;;;;;;;3.77;3.47;;;;;;;16.90;50.31;95582.88;5108481;28;20440;-61
2022/10/25 06:38:50;;;;;;;1.17;1.07;;;;;;;17.08;49.99;95597.28;5112760;28;20489;-62
2022/10/25 06:41:20;;;;;;;4.67;3.77;;;;;;;16.62;51.29;95607.47;5097037;27;20484;-63
2022/10/25 06:43:47;;;;;;;3.83;3.37;;;;;;;16.86;50.59;95597.75;5104948;28;21012;-63
2022/10/25 06:46:19;;;;;;;2.93;2.47;;;;;;;16.43;50.89;95603.84;5106463;28;20495;-63
2022/10/25 06:48:46;;;;;;;3.03;2.77;;;;;;;16.10;51.46;95586.88;5104312;28;20440;-63
2022/10/25 06:51:14;;;;;;;3.47;3.10;;;;;;;15.96;52.26;95603.59;5103351;28;20445;-62
2022/10/25 06:53:41;;;;;;;6.70;2.73;;;;;;;16.24;52.01;95605.53;5107053;28;20845;-64
2022/10/25 06:56:10;;;;;;;8.33;5.03;;;;;;;16.70;50.64;95604.22;5112055;28;20532;-63
2022/10/25 06:58:41;;;;;;;7.77;4.00;;;;;;;16.49;51.36;95599.34;5097567;28;20463;-61
2022/10/25 07:01:13;;;;;;;3.50;3.20;;;;;;;16.67;50.81;95598.69;5097746;28;20476;-61
2022/10/25 07:03:41;;;;;;;3.40;2.60;;;;;;;16.54;50.76;95589.53;5112244;28;20452;-63
2022/10/25 07:06:14;;;;;;;1.37;1.27;;;;;;;17.02;49.96;95590.47;5097327;28;20539;-62
2022/10/25 07:08:44;;;;;;;9.97;4.23;;;;;;;17.41;48.76;95583.19;5099175;28;20449;-64
2022/10/25 07:11:17;;;;;;;3.33;2.67;;;;;;;17.28;48.52;95577.78;5105344;28;20481;-62
2022/10/25 07:13:45;;;;;;;2.87;2.10;;;;;;;16.97;49.56;95588.66;5103943;28;20444;-65
2022/10/25 07:16:31;;;;;;;0.80;0.80;;;;;;;17.10;50.56;95592.50;5107164;28;20442;-63
2022/10/25 07:19:00;;;;;;;1.67;1.57;;;;;;;17.02;50.60;95591.25;5105237;28;20448;-64
2022/10/25 07:21:28;;;;;;;1.10;1.10;;;;;;;17.28;49.62;95583.09;5096787;28;21144;-63
2022/10/25 07:23:55;;;;;;;1.00;1.00;;;;;;;17.61;48.39;95576.94;5111474;28;20531;-64
2022/10/25 07:26:26;;;;;;;3.23;1.13;;;;;;;17.36;49.16;95569.22;5111386;28;20490;-61
2022/10/25 07:28:55;;;;;;;0.67;0.67;;;;;;;17.98;48.08;95571.69;5111518;28;20536;-64
2022/10/25 07:31:25;;;;;;;4.00;3.07;;;;;;;18.30;46.67;95563.84;5096877;28;20531;-61
2022/10/25 07:33:53;;;;;;;1.13;1.13;;;;;;;18.47;47.17;95564.16;5111142;28;20446;-63
2022/10/25 07:36:20;;;;;;;4.07;1.13;;;;;;;19.00;45.74;95557.47;5094647;28;20473;-64
2022/10/25 07:38:47;;;;;;;5.53;2.17;;;;;;;18.96;45.82;95567.06;5091505;28;20441;-63
2022/10/25 07:41:14;;;;;;;2.70;1.40;;;;;;;18.48;47.15;95571.06;5091097;28;20998;-64
2022/10/25 07:43:41;;;;;;;1.37;1.27;;;;;;;18.79;46.73;95572.16;5102321;28;20441;-62
2022/10/25 07:46:08;;;;;;;4.87;2.70;;;;;;;19.21;45.81;95565.88;5106088;28;20544;-64
2022/10/25 07:48:35;;;;;;;6.43;1.93;;;;;;;19.01;45.92;95569.66;5101589;28;20472;-62
2022/10/25 07:51:07;;;;;;;1.63;1.53;;;;;;;19.50;44.90;95565.63;5103853;28;20437;-64
2022/10/25 07:53:34;;;;;;;1.50;1.27;;;;;;;19.83;44.84;95559.13;5104609;28;20436;-65
2022/10/25 07:56:02;;;;;;;5.33;2.03;;;;;;;19.82;43.05;95544.25;5096811;28;20432;-65
2022/10/25 07:58:29;;;;;;;4.07;2.57;;;;;;;20.18;42.57;95534.47;5110940;28;20572;-64
2022/10/25 08:01:03;;;;;;;12.77;3.13;;;;;;;20.71;41.59;95537.25;5105389;28;20569;-65
2022/10/25 08:03:31;;;;;;;1.20;1.10;;;;;;;20.32;42.93;95539.75;5089878;28;20923;-63
2022/10/25 08:05:58;;;;;;;6.80;1.50;;;;;;;20.75;41.57;95539.00;5089795;28;20441;-66
2022/10/25 08:08:27;;;;;;;2.43;2.23;;;;;;;20.69;41.99;95534.88;5100811;28;20448;-66
2022/10/25 08:10:54;;;;;;;1.80;1.27;;;;;;;21.13;41.75;95545.53;5110478;28;20467;-63
2022/10/25 08:13:22;;;;;;;1.53;1.07;;;;;;;20.73;42.80;95537.75;5110048;28;20459;-64
2022/10/25 08:15:54;;;;;;;5.47;2.27;;;;;;;21.36;42.37;95526.81;5110640;28;20464;-65
2022/10/25 08:18:22;;;;;;;4.63;3.13;;;;;;;22.02;40.58;95545.28;5110417;28;20475;-62
2022/10/25 08:20:49;;;;;;;5.47;3.17;;;;;;;21.89;40.89;95540.84;5110193;28;20451;-64
2022/10/25 08:23:30;;;;;;;5.33;2.23;;;;;;;22.11;40.85;95532.72;5101156;28;20544;-65
2022/10/25 08:25:57;;;;;;;1.50;1.40;;;;;;;22.08;40.21;95523.44;5103541;28;20444;-65
2022/10/25 08:28:24;;;;;;;1.57;1.00;;;;;;;21.54;40.62;95528.44;5102719;28;20218;-62
2022/10/25 08:30:54;;;;;;;1.03;0.97;;;;;;;22.78;39.39;95519.69;5089734;28;20198;-64
2022/10/25 08:33:21;;;;;;;0.57;0.57;;;;;;;22.36;39.86;95523.94;5110090;28;20198;-63
2022/10/25 08:35:48;;;;;;;2.03;1.67;;;;;;;22.40;39.92;95518.75;5110090;28;20197;-63
2022/10/25 08:38:15;;;;;;;2.00;1.53;;;;;;;22.71;38.81;95506.84;5090142;28;20202;-63
2022/10/25 08:40:54;;;;;;;6.83;3.23;;;;;;;22.50;39.47;95516.53;5098174;28;20198;-63
2022/10/25 08:43:27;;;;;;;3.23;3.00;;;;;;;22.85;38.53;95501.28;5089461;28;20440;-66
2022/10/25 08:46:01;;;;;;;3.00;2.47;;;;;;;22.57;39.02;95518.78;5091862;28;20705;-65
2022/10/25 08:48:34;;;;;;;2.40;2.07;;;;;;;22.82;38.16;95508.06;5110045;28;20296;-65
2022/10/25 08:51:13;;;;;;;0.93;0.93;;;;;;;22.13;39.42;95504.59;5092412;28;20210;-61
2022/10/25 08:53:47;;;;;;;3.80;1.90;;;;;;;22.71;38.56;95498.81;5104490;28;20692;-62
2022/10/25 08:56:17;;;;;;;1.13;1.03;;;;;;;23.24;38.62;95489.56;5109291;28;20197;-65
2022/10/25 08:58:51;;;;;;;4.10;1.97;;;;;;;23.75;37.17;95484.78;5108861;28;20281;-62
2022/10/25 09:01:26;;;;;;;2.53;2.00;;;;;;;23.22;37.31;95475.72;5097406;28;20295;-64
2022/10/25 09:03:53;;;;;;;1.77;1.67;;;;;;;23.48;37.32;95487.13;5108797;28;20194;-62
2022/10/25 09:06:27;;;;;;;1.80;1.70;;;;;;;24.45;36.12;95486.66;5096881;28;20198;-64
2022/10/25 09:09:25;;;;;;;1.23;1.13;;;;;;;24.64;35.71;95476.25;5109400;28;20182;-66
2022/10/25 09:12:01;;;;;;;2.90;1.97;;;;;;;24.51;35.55;95480.00;5098203;28;20202;-64
2022/10/25 09:14:46;;;;;;;8.07;1.63;;;;;;;24.99;35.23;95474.84;5107962;28;20208;-67
2022/10/25 09:17:27;;;;;;;1.63;1.53;;;;;;;25.24;34.05;95481.00;5109564;28;20198;-65
2022/10/25 09:20:16;;;;;;;2.77;2.17;;;;;;;24.65;33.79;95472.44;5102439;28;20210;-65
2022/10/25 09:22:53;;;;;;;1.47;1.23;;;;;;;24.76;34.69;95479.00;5102332;28;20221;-65
2022/10/25 09:25:32;;;;;;;2.97;1.97;;;;;;;25.47;33.56;95473.34;5088556;28;20191;-63
2022/10/25 09:28:02;;;;;;;1.07;1.00;;;;;;;25.45;34.08;95475.59;5092124;28;20190;-64
2022/10/25 09:30:36;;;;;;;3.93;1.80;;;;;;;25.28;34.13;95476.56;5098371;28;20203;-65
2022/10/25 09:33:09;;;;;;;1.03;0.97;;;;;;;24.58;34.24;95477.56;5106046;28;20205;-65
2022/10/25 09:35:47;;;;;;;0.93;0.90;;;;;;;25.23;32.85;95465.25;5098059;28;20187;-65
2022/10/25 09:38:38;;;;;;;0.70;0.70;;;;;;;25.42;33.50;95457.47;5088934;28;20201;-64
2022/10/25 09:41:35;;;;;;;1.73;1.63;;;;;;;25.82;33.29;95464.50;5088888;28;20191;-65
2022/10/25 09:44:35;;;;;;;1.80;0.90;;;;;;;25.63;32.95;95455.47;5080879;28;20226;-62
2022/10/25 09:47:44;;;;;;;1.40;1.20;;;;;;;25.69;33.00;95448.75;5109242;28;20231;-65
2022/10/25 09:50:33;;;;;;;1.17;1.10;;;;;;;25.95;32.60;95430.34;5078535;28;20658;-61
2022/10/25 09:53:06;;;;;;;1.33;1.27;;;;;;;25.67;32.65;95441.03;5098585;28;20205;-65
2022/10/25 09:55:40;;;;;;;1.37;1.27;;;;;;;24.97;33.46;95444.88;5092282;28;20263;-63
2022/10/25 09:58:19;;;;;;;0.80;0.80;;;;;;;25.60;32.57;95434.66;5098608;28;20272;-62
2022/10/25 10:00:47;;;;;;;4.13;1.50;;;;;;;25.90;31.59;95430.59;5110201;28;20206;-61
2022/10/25 10:03:14;;;;;;;6.23;2.20;;;;;;;25.49;32.80;95430.88;5110160;28;20290;-67
2022/10/25 10:05:47;;;;;;;2.63;1.50;;;;;;;25.77;31.89;95434.41;5109603;28;20287;-62
2022/10/25 10:08:14;;;;;;;4.33;0.80;;;;;;;25.80;32.64;95428.38;5111618;28;20259;-64
2022/10/25 10:10:41;;;;;;;34.70;6.50;;;;;;;26.24;31.23;95416.63;5098735;28;20251;-65
2022/10/25 10:13:17;;;;;;;2.20;1.97;;;;;;;25.88;32.45;95424.75;5112498;28;20353;-64
2022/10/25 10:16:09;;;;;;;2.67;1.83;;;;;;;26.18;32.00;95418.03;5098569;28;20293;-63
2022/10/25 10:18:36;;;;;;;1.03;0.93;;;;;;;26.35;31.72;95409.66;5113510;28;20202;-62
2022/10/25 10:21:03;;;;;;;2.33;1.03;;;;;;;26.10;32.09;95405.50;5109831;28;20283;-65
2022/10/25 10:23:53;;;;;;;6.23;2.97;;;;;;;26.26;31.37;95400.94;5090996;28;20350;-63
2022/10/25 10:26:34;;;;;;;2.27;1.87;;;;;;;26.27;32.11;95394.47;5096731;28;20190;-61
2022/10/25 10:29:13;;;;;;;1.27;1.17;;;;;;;26.53;32.58;95392.09;5100464;28;20207;-63
2022/10/25 10:31:46;;;;;;;2.77;2.40;;;;;;;26.69;32.17;95387.56;5098421;28;20208;-65
2022/10/25 10:34:29;;;;;;;3.20;2.40;;;;;;;26.33;32.28;95386.94;5112888;28;20652;-65
2022/10/25 10:37:11;;;;;;;2.27;2.07;;;;;;;26.52;32.17;95382.47;5099794;28;20187;-65
2022/10/25 10:39:56;;;;;;;1.50;1.00;;;;;;;26.68;31.66;95371.75;5111981;28;20645;-64
2022/10/25 10:42:35;;;;;;;1.63;1.53;;;;;;;26.94;31.54;95364.00;5098097;28;20704;-66
2022/10/25 10:45:08;;;;;;;4.63;1.83;;;;;;;26.70;31.29;95364.94;5103277;28;20347;-64
2022/10/25 10:47:55;;;;;;;1.70;1.37;;;;;;;26.67;30.34;95364.81;5106002;28;20279;-64
2022/10/25 10:50:27;;;;;;;1.73;1.00;;;;;;;26.83;31.06;95350.28;5101716;28;20259;-66
2022/10/25 10:52:54;;;;;;;0.63;0.63;;;;;;;26.77;30.50;95354.34;5101111;28;20294;-63
2022/10/25 10:55:45;;;;;;;1.30;1.20;;;;;;;26.41;31.16;95351.84;5098428;28;20226;-65
2022/10/25 10:58:30;;;;;;;1.37;1.27;;;;;;;26.25;31.48;95353.72;5102405;28;20203;-63
2022/10/25 11:00:59;;;;;;;1.50;1.17;;;;;;;26.74;31.58;95348.88;5098031;28;20218;-64
2022/10/25 11:03:41;;;;;;;6.60;2.03;;;;;;;26.70;31.65;95342.63;5100676;28;20230;-65
2022/10/25 11:06:35;;;;;;;1.40;1.30;;;;;;;26.77;31.68;95340.91;5091549;28;20182;-64
2022/10/25 11:09:18;;;;;;;1.03;1.03;;;;;;;26.91;31.13;95327.81;5092657;28;20194;-67
2022/10/25 11:12:03;;;;;;;1.23;1.10;;;;;;;27.17;31.12;95331.88;5101814;28;20665;-66
2022/10/25 11:14:30;;;;;;;1.50;1.13;;;;;;;26.95;30.39;95328.66;5111027;28;20516;-64
2022/10/25 11:17:09;;;;;;;3.13;2.43;;;;;;;27.19;30.07;95319.63;5112011;28;20564;-64
2022/10/25 11:19:54;;;;;;;2.70;1.60;;;;;;;27.29;30.57;95331.75;5107471;28;20229;-64
2022/10/25 11:22:30;;;;;;;1.43;0.90;;;;;;;27.61;29.62;95323.28;5104811;28;20267;-66
2022/10/25 11:25:11;;;;;;;6.03;1.97;;;;;;;27.64;29.45;95324.50;5097906;28;20283;-63
2022/10/25 11:27:52;;;;;;;2.60;2.30;;;;;;;27.50;27.83;95313.44;5111894;28;20202;-63
2022/10/25 11:30:25;;;;;;;7.53;1.73;;;;;;;28.02;28.11;95305.69;5111731;28;20206;-64
2022/10/25 11:33:21;;;;;;;0.57;0.57;;;;;;;28.01;28.97;95298.72;5111614;28;20202;-66
2022/10/25 11:36:09;;;;;;;10.60;4.23;;;;;;;28.69;28.54;95305.00;5107749;28;20746;-61
2022/10/25 11:38:48;;;;;;;1.60;1.47;;;;;;;27.70;28.62;95304.25;5098005;28;20198;-64
2022/10/25 11:41:33;;;;;;;2.67;1.93;;;;;;;28.30;27.16;95289.25;5105247;28;20692;-61
2022/10/25 11:44:28;;;;;;;13.13;2.23;;;;;;;28.63;28.38;95282.16;5090589;28;20198;-66
2022/10/25 11:47:04;;;;;;;0.40;0.40;;;;;;;29.43;27.58;95286.50;5101887;28;20280;-63
2022/10/25 11:49:31;;;;;;;8.90;3.23;;;;;;;29.74;26.73;95286.16;5096821;28;20197;-65
2022/10/25 11:52:22;;;;;;;2.90;1.40;;;;;;;30.14;26.47;95270.03;5095194;28;20670;-66
2022/10/25 11:54:55;;;;;;;1.80;1.70;;;;;;;30.06;26.20;95270.31;5090748;28;20248;-65
2022/10/25 11:57:32;;;;;;;5.20;1.90;;;;;;;29.63;26.27;95269.03;5107791;28;20813;-64
2022/10/25 12:00:05;;;;;;;0.97;0.97;;;;;;;30.28;25.49;95262.09;5100028;28;20214;-66